sensor_id;sensor_type;location;lat;lon;timestamp;P1;durP1;ratioP1;P2;durP2;ratioP2
5559;SDS011;2803;47.916;8.074;2023-09-08T00:00:00;11.97;;;6.97;;
5559;SDS011;2803;47.916;8.074;2023-09-08T00:02:26;9.93;;;7.27;;
5559;SDS011;2803;47.916;8.074;2023-09-08T00:04:53;12.53;;;8.87;;
5559;SDS011;2803;47.916;8.074;2023-09-08T00:07:21;11.03;;;7.80;;
5559;SDS011;2803;47.916;8.074;2023-09-08T00:09:47;17.70;;;9.75;;
5559;SDS011;2803;47.916;8.074;2023-09-08T00:12:14;11.65;;;7.70;;
5559;SDS011;2803;47.916;8.074;2023-09-08T00:14:41;9.20;;;6.70;;
5559;SDS011;2803;47.916;8.074;2023-09-08T00:17:08;9.30;;;5.70;;
5559;SDS011;2803;47.916;8.074;2023-09-08T00:19:35;9.30;;;6.93;;
5559;SDS011;2803;47.916;8.074;2023-09-08T00:22:02;9.23;;;6.47;;
5559;SDS011;2803;47.916;8.074;2023-09-08T00:24:30;11.67;;;6.60;;
5559;SDS011;2803;47.916;8.074;2023-09-08T00:26:57;8.37;;;6.83;;
5559;SDS011;2803;47.916;8.074;2023-09-08T00:29:24;11.73;;;6.10;;
5559;SDS011;2803;47.916;8.074;2023-09-08T00:31:51;9.70;;;6.63;;
5559;SDS011;2803;47.916;8.074;2023-09-08T00:34:18;8.13;;;6.50;;
5559;SDS011;2803;47.916;8.074;2023-09-08T00:36:45;10.60;;;5.90;;
5559;SDS011;2803;47.916;8.074;2023-09-08T00:39:11;14.17;;;7.00;;
5559;SDS011;2803;47.916;8.074;2023-09-08T00:41:38;12.30;;;6.20;;
5559;SDS011;2803;47.916;8.074;2023-09-08T00:44:04;13.53;;;7.10;;
5559;SDS011;2803;47.916;8.074;2023-09-08T00:46:33;8.80;;;6.30;;
5559;SDS011;2803;47.916;8.074;2023-09-08T00:49:01;13.20;;;7.27;;
5559;SDS011;2803;47.916;8.074;2023-09-08T00:51:28;11.67;;;7.53;;
5559;SDS011;2803;47.916;8.074;2023-09-08T00:53:55;9.50;;;6.57;;
5559;SDS011;2803;47.916;8.074;2023-09-08T00:56:21;14.77;;;7.20;;
5559;SDS011;2803;47.916;8.074;2023-09-08T00:58:49;12.23;;;7.13;;
5559;SDS011;2803;47.916;8.074;2023-09-08T01:01:15;9.90;;;7.23;;
5559;SDS011;2803;47.916;8.074;2023-09-08T01:03:43;10.43;;;6.87;;
5559;SDS011;2803;47.916;8.074;2023-09-08T01:06:11;10.00;;;7.07;;
5559;SDS011;2803;47.916;8.074;2023-09-08T01:08:39;13.87;;;7.37;;
5559;SDS011;2803;47.916;8.074;2023-09-08T01:11:06;10.70;;;7.50;;
5559;SDS011;2803;47.916;8.074;2023-09-08T01:13:36;12.33;;;6.33;;
5559;SDS011;2803;47.916;8.074;2023-09-08T01:16:02;11.67;;;7.00;;
5559;SDS011;2803;47.916;8.074;2023-09-08T01:18:30;7.70;;;5.90;;
5559;SDS011;2803;47.916;8.074;2023-09-08T01:21:03;8.30;;;6.80;;
5559;SDS011;2803;47.916;8.074;2023-09-08T01:23:44;6.60;;;5.70;;
5559;SDS011;2803;47.916;8.074;2023-09-08T01:26:24;7.70;;;6.57;;
5559;SDS011;2803;47.916;8.074;2023-09-08T01:28:55;11.30;;;6.60;;
5559;SDS011;2803;47.916;8.074;2023-09-08T01:31:23;9.07;;;6.77;;
5559;SDS011;2803;47.916;8.074;2023-09-08T01:33:49;10.00;;;6.40;;
5559;SDS011;2803;47.916;8.074;2023-09-08T01:36:16;11.10;;;8.07;;
5559;SDS011;2803;47.916;8.074;2023-09-08T01:38:43;8.73;;;7.07;;
5559;SDS011;2803;47.916;8.074;2023-09-08T01:41:10;10.70;;;6.63;;
5559;SDS011;2803;47.916;8.074;2023-09-08T01:43:37;11.17;;;6.93;;
5559;SDS011;2803;47.916;8.074;2023-09-08T01:46:04;8.37;;;7.00;;
5559;SDS011;2803;47.916;8.074;2023-09-08T01:48:31;7.60;;;6.30;;
5559;SDS011;2803;47.916;8.074;2023-09-08T01:50:57;10.47;;;7.20;;
5559;SDS011;2803;47.916;8.074;2023-09-08T01:53:24;8.83;;;6.03;;
5559;SDS011;2803;47.916;8.074;2023-09-08T01:55:50;10.00;;;7.73;;
5559;SDS011;2803;47.916;8.074;2023-09-08T01:58:17;11.50;;;7.63;;
5559;SDS011;2803;47.916;8.074;2023-09-08T02:00:48;9.47;;;6.97;;
5559;SDS011;2803;47.916;8.074;2023-09-08T02:03:17;8.40;;;6.73;;
5559;SDS011;2803;47.916;8.074;2023-09-08T02:05:44;7.80;;;6.77;;
5559;SDS011;2803;47.916;8.074;2023-09-08T02:08:11;11.03;;;7.47;;
5559;SDS011;2803;47.916;8.074;2023-09-08T02:10:38;12.23;;;7.37;;
5559;SDS011;2803;47.916;8.074;2023-09-08T02:13:05;8.50;;;6.90;;
5559;SDS011;2803;47.916;8.074;2023-09-08T02:15:34;14.13;;;6.73;;
5559;SDS011;2803;47.916;8.074;2023-09-08T02:18:02;9.67;;;7.23;;
5559;SDS011;2803;47.916;8.074;2023-09-08T02:20:29;9.97;;;6.60;;
5559;SDS011;2803;47.916;8.074;2023-09-08T02:22:55;10.40;;;7.60;;
5559;SDS011;2803;47.916;8.074;2023-09-08T02:25:23;8.57;;;6.90;;
5559;SDS011;2803;47.916;8.074;2023-09-08T02:27:49;12.37;;;6.10;;
5559;SDS011;2803;47.916;8.074;2023-09-08T02:30:16;11.30;;;6.80;;
5559;SDS011;2803;47.916;8.074;2023-09-08T02:32:43;11.47;;;6.97;;
5559;SDS011;2803;47.916;8.074;2023-09-08T02:35:11;10.73;;;6.60;;
5559;SDS011;2803;47.916;8.074;2023-09-08T02:37:37;11.30;;;5.97;;
5559;SDS011;2803;47.916;8.074;2023-09-08T02:40:04;8.57;;;6.90;;
5559;SDS011;2803;47.916;8.074;2023-09-08T02:42:31;6.70;;;6.00;;
5559;SDS011;2803;47.916;8.074;2023-09-08T02:44:58;8.67;;;6.63;;
5559;SDS011;2803;47.916;8.074;2023-09-08T02:47:25;8.03;;;6.30;;
5559;SDS011;2803;47.916;8.074;2023-09-08T02:49:51;7.90;;;6.03;;
5559;SDS011;2803;47.916;8.074;2023-09-08T02:52:19;15.60;;;6.67;;
5559;SDS011;2803;47.916;8.074;2023-09-08T02:54:46;10.07;;;7.40;;
5559;SDS011;2803;47.916;8.074;2023-09-08T02:57:13;8.80;;;6.50;;
5559;SDS011;2803;47.916;8.074;2023-09-08T02:59:41;9.10;;;7.17;;
5559;SDS011;2803;47.916;8.074;2023-09-08T03:02:08;9.03;;;7.60;;
5559;SDS011;2803;47.916;8.074;2023-09-08T03:04:34;13.83;;;7.43;;
5559;SDS011;2803;47.916;8.074;2023-09-08T03:07:01;7.40;;;6.63;;
5559;SDS011;2803;47.916;8.074;2023-09-08T03:09:29;8.60;;;6.43;;
5559;SDS011;2803;47.916;8.074;2023-09-08T03:11:56;15.57;;;6.73;;
5559;SDS011;2803;47.916;8.074;2023-09-08T03:14:22;13.07;;;6.53;;
5559;SDS011;2803;47.916;8.074;2023-09-08T03:16:49;9.47;;;6.53;;
5559;SDS011;2803;47.916;8.074;2023-09-08T03:19:15;6.60;;;5.57;;
5559;SDS011;2803;47.916;8.074;2023-09-08T03:21:42;9.67;;;6.30;;
5559;SDS011;2803;47.916;8.074;2023-09-08T03:24:08;11.10;;;6.30;;
5559;SDS011;2803;47.916;8.074;2023-09-08T03:26:36;6.90;;;5.90;;
5559;SDS011;2803;47.916;8.074;2023-09-08T03:29:05;9.73;;;5.83;;
5559;SDS011;2803;47.916;8.074;2023-09-08T03:31:31;9.03;;;7.20;;
5559;SDS011;2803;47.916;8.074;2023-09-08T03:33:58;7.60;;;6.17;;
5559;SDS011;2803;47.916;8.074;2023-09-08T03:36:25;8.53;;;6.37;;
5559;SDS011;2803;47.916;8.074;2023-09-08T03:38:51;7.20;;;5.90;;
5559;SDS011;2803;47.916;8.074;2023-09-08T03:41:18;9.60;;;6.50;;
5559;SDS011;2803;47.916;8.074;2023-09-08T03:43:46;9.17;;;6.40;;
5559;SDS011;2803;47.916;8.074;2023-09-08T03:46:14;8.77;;;6.47;;
5559;SDS011;2803;47.916;8.074;2023-09-08T03:48:40;11.67;;;7.40;;
5559;SDS011;2803;47.916;8.074;2023-09-08T03:51:07;8.93;;;6.70;;
5559;SDS011;2803;47.916;8.074;2023-09-08T03:53:34;8.00;;;6.60;;
5559;SDS011;2803;47.916;8.074;2023-09-08T03:56:00;7.53;;;6.10;;
5559;SDS011;2803;47.916;8.074;2023-09-08T03:58:27;9.17;;;6.70;;
5559;SDS011;2803;47.916;8.074;2023-09-08T04:00:55;9.60;;;6.27;;
5559;SDS011;2803;47.916;8.074;2023-09-08T04:03:22;8.40;;;5.17;;
5559;SDS011;2803;47.916;8.074;2023-09-08T04:05:48;6.70;;;5.73;;
5559;SDS011;2803;47.916;8.074;2023-09-08T04:08:15;6.23;;;5.20;;
5559;SDS011;2803;47.916;8.074;2023-09-08T04:10:42;7.23;;;6.33;;
5559;SDS011;2803;47.916;8.074;2023-09-08T04:13:09;7.97;;;6.23;;
5559;SDS011;2803;47.916;8.074;2023-09-08T04:15:36;9.20;;;6.90;;
5559;SDS011;2803;47.916;8.074;2023-09-08T04:18:04;8.43;;;6.30;;
5559;SDS011;2803;47.916;8.074;2023-09-08T04:20:33;12.90;;;6.40;;
5559;SDS011;2803;47.916;8.074;2023-09-08T04:23:00;13.60;;;6.30;;
5559;SDS011;2803;47.916;8.074;2023-09-08T04:25:26;7.13;;;5.33;;
5559;SDS011;2803;47.916;8.074;2023-09-08T04:27:53;6.80;;;5.50;;
5559;SDS011;2803;47.916;8.074;2023-09-08T04:30:20;8.43;;;6.23;;
5559;SDS011;2803;47.916;8.074;2023-09-08T04:32:46;8.20;;;5.90;;
5559;SDS011;2803;47.916;8.074;2023-09-08T04:35:14;6.80;;;5.40;;
5559;SDS011;2803;47.916;8.074;2023-09-08T04:37:41;6.73;;;5.57;;
5559;SDS011;2803;47.916;8.074;2023-09-08T04:40:08;14.50;;;5.83;;
5559;SDS011;2803;47.916;8.074;2023-09-08T04:42:35;9.87;;;6.10;;
5559;SDS011;2803;47.916;8.074;2023-09-08T04:45:02;9.97;;;5.77;;
5559;SDS011;2803;47.916;8.074;2023-09-08T04:47:29;8.70;;;5.70;;
5559;SDS011;2803;47.916;8.074;2023-09-08T04:49:55;10.30;;;7.20;;
5559;SDS011;2803;47.916;8.074;2023-09-08T04:52:23;7.00;;;5.23;;
5559;SDS011;2803;47.916;8.074;2023-09-08T04:54:50;9.57;;;6.37;;
5559;SDS011;2803;47.916;8.074;2023-09-08T04:57:16;8.40;;;6.17;;
5559;SDS011;2803;47.916;8.074;2023-09-08T04:59:43;7.70;;;6.00;;
5559;SDS011;2803;47.916;8.074;2023-09-08T05:02:10;7.83;;;6.10;;
5559;SDS011;2803;47.916;8.074;2023-09-08T05:04:36;5.57;;;5.07;;
5559;SDS011;2803;47.916;8.074;2023-09-08T05:07:03;7.27;;;5.63;;
5559;SDS011;2803;47.916;8.074;2023-09-08T05:09:31;10.10;;;5.80;;
5559;SDS011;2803;47.916;8.074;2023-09-08T05:11:58;10.23;;;6.30;;
5559;SDS011;2803;47.916;8.074;2023-09-08T05:14:25;7.53;;;5.63;;
5559;SDS011;2803;47.916;8.074;2023-09-08T05:16:52;10.00;;;5.30;;
5559;SDS011;2803;47.916;8.074;2023-09-08T05:19:20;16.13;;;6.07;;
5559;SDS011;2803;47.916;8.074;2023-09-08T05:21:49;7.80;;;5.10;;
5559;SDS011;2803;47.916;8.074;2023-09-08T05:24:16;9.50;;;5.50;;
5559;SDS011;2803;47.916;8.074;2023-09-08T05:26:44;7.50;;;5.50;;
5559;SDS011;2803;47.916;8.074;2023-09-08T05:29:11;9.00;;;5.90;;
5559;SDS011;2803;47.916;8.074;2023-09-08T05:31:37;10.27;;;5.80;;
5559;SDS011;2803;47.916;8.074;2023-09-08T05:34:04;7.97;;;5.30;;
5559;SDS011;2803;47.916;8.074;2023-09-08T05:36:32;8.60;;;5.50;;
5559;SDS011;2803;47.916;8.074;2023-09-08T05:39:01;7.00;;;5.90;;
5559;SDS011;2803;47.916;8.074;2023-09-08T05:41:27;6.93;;;5.90;;
5559;SDS011;2803;47.916;8.074;2023-09-08T05:43:56;7.73;;;5.60;;
5559;SDS011;2803;47.916;8.074;2023-09-08T05:46:24;7.30;;;5.10;;
5559;SDS011;2803;47.916;8.074;2023-09-08T05:48:51;7.27;;;5.37;;
5559;SDS011;2803;47.916;8.074;2023-09-08T05:51:18;5.53;;;5.00;;
5559;SDS011;2803;47.916;8.074;2023-09-08T05:53:44;9.30;;;6.10;;
5559;SDS011;2803;47.916;8.074;2023-09-08T05:56:11;7.47;;;5.50;;
5559;SDS011;2803;47.916;8.074;2023-09-08T05:58:37;13.40;;;6.03;;
5559;SDS011;2803;47.916;8.074;2023-09-08T06:01:05;7.67;;;5.73;;
5559;SDS011;2803;47.916;8.074;2023-09-08T06:03:32;7.13;;;5.40;;
5559;SDS011;2803;47.916;8.074;2023-09-08T06:05:59;9.97;;;6.47;;
5559;SDS011;2803;47.916;8.074;2023-09-08T06:08:25;8.47;;;6.23;;
5559;SDS011;2803;47.916;8.074;2023-09-08T06:10:52;6.30;;;5.03;;
5559;SDS011;2803;47.916;8.074;2023-09-08T06:13:19;6.37;;;4.53;;
5559;SDS011;2803;47.916;8.074;2023-09-08T06:15:45;6.67;;;5.30;;
5559;SDS011;2803;47.916;8.074;2023-09-08T06:18:13;8.93;;;5.40;;
5559;SDS011;2803;47.916;8.074;2023-09-08T06:20:44;9.03;;;5.93;;
5559;SDS011;2803;47.916;8.074;2023-09-08T06:23:11;7.87;;;5.73;;
5559;SDS011;2803;47.916;8.074;2023-09-08T06:25:38;8.37;;;5.60;;
5559;SDS011;2803;47.916;8.074;2023-09-08T06:28:05;7.60;;;6.40;;
5559;SDS011;2803;47.916;8.074;2023-09-08T06:30:32;6.97;;;5.93;;
5559;SDS011;2803;47.916;8.074;2023-09-08T06:32:58;8.17;;;5.60;;
5559;SDS011;2803;47.916;8.074;2023-09-08T06:35:26;7.37;;;5.77;;
5559;SDS011;2803;47.916;8.074;2023-09-08T06:37:53;6.37;;;4.87;;
5559;SDS011;2803;47.916;8.074;2023-09-08T06:40:20;13.23;;;5.60;;
5559;SDS011;2803;47.916;8.074;2023-09-08T06:42:46;7.03;;;5.83;;
5559;SDS011;2803;47.916;8.074;2023-09-08T06:45:13;5.97;;;5.17;;
5559;SDS011;2803;47.916;8.074;2023-09-08T06:47:40;12.77;;;5.90;;
5559;SDS011;2803;47.916;8.074;2023-09-08T06:50:07;6.67;;;5.40;;
5559;SDS011;2803;47.916;8.074;2023-09-08T06:52:36;6.80;;;5.00;;
5559;SDS011;2803;47.916;8.074;2023-09-08T06:55:02;8.17;;;4.83;;
5559;SDS011;2803;47.916;8.074;2023-09-08T06:57:30;7.63;;;4.70;;
5559;SDS011;2803;47.916;8.074;2023-09-08T06:59:57;7.07;;;5.07;;
5559;SDS011;2803;47.916;8.074;2023-09-08T07:02:23;6.27;;;4.63;;
5559;SDS011;2803;47.916;8.074;2023-09-08T07:04:50;15.30;;;5.10;;
5559;SDS011;2803;47.916;8.074;2023-09-08T07:07:16;8.53;;;4.73;;
5559;SDS011;2803;47.916;8.074;2023-09-08T07:09:46;6.80;;;4.80;;
5559;SDS011;2803;47.916;8.074;2023-09-08T07:12:13;5.13;;;4.63;;
5559;SDS011;2803;47.916;8.074;2023-09-08T07:14:40;8.93;;;4.80;;
5559;SDS011;2803;47.916;8.074;2023-09-08T07:17:06;6.23;;;5.00;;
5559;SDS011;2803;47.916;8.074;2023-09-08T07:19:33;7.87;;;5.67;;
5559;SDS011;2803;47.916;8.074;2023-09-08T07:21:59;6.87;;;5.50;;
5559;SDS011;2803;47.916;8.074;2023-09-08T07:24:26;6.07;;;4.83;;
5559;SDS011;2803;47.916;8.074;2023-09-08T07:26:54;8.27;;;5.10;;
5559;SDS011;2803;47.916;8.074;2023-09-08T07:29:20;8.80;;;5.67;;
5559;SDS011;2803;47.916;8.074;2023-09-08T07:31:47;12.33;;;5.53;;
5559;SDS011;2803;47.916;8.074;2023-09-08T07:34:14;8.17;;;5.67;;
5559;SDS011;2803;47.916;8.074;2023-09-08T07:36:40;7.27;;;6.00;;
5559;SDS011;2803;47.916;8.074;2023-09-08T07:39:07;6.07;;;4.97;;
5559;SDS011;2803;47.916;8.074;2023-09-08T07:41:33;7.73;;;5.53;;
5559;SDS011;2803;47.916;8.074;2023-09-08T07:44:02;8.43;;;5.33;;
5559;SDS011;2803;47.916;8.074;2023-09-08T07:46:29;8.20;;;5.30;;
5559;SDS011;2803;47.916;8.074;2023-09-08T07:48:57;5.70;;;5.13;;
5559;SDS011;2803;47.916;8.074;2023-09-08T07:51:24;7.10;;;5.90;;
5559;SDS011;2803;47.916;8.074;2023-09-08T07:53:51;6.53;;;5.47;;
5559;SDS011;2803;47.916;8.074;2023-09-08T07:56:19;9.13;;;5.03;;
5559;SDS011;2803;47.916;8.074;2023-09-08T07:58:45;7.63;;;5.70;;
5559;SDS011;2803;47.916;8.074;2023-09-08T08:01:13;9.13;;;6.00;;
5559;SDS011;2803;47.916;8.074;2023-09-08T08:03:40;7.40;;;5.90;;
5559;SDS011;2803;47.916;8.074;2023-09-08T08:06:07;7.50;;;5.73;;
5559;SDS011;2803;47.916;8.074;2023-09-08T08:08:33;12.60;;;5.40;;
5559;SDS011;2803;47.916;8.074;2023-09-08T08:11:03;8.07;;;5.70;;
5559;SDS011;2803;47.916;8.074;2023-09-08T08:13:36;6.13;;;5.53;;
5559;SDS011;2803;47.916;8.074;2023-09-08T08:16:03;8.60;;;6.00;;
5559;SDS011;2803;47.916;8.074;2023-09-08T08:18:31;12.90;;;6.87;;
5559;SDS011;2803;47.916;8.074;2023-09-08T08:20:57;9.13;;;5.93;;
5559;SDS011;2803;47.916;8.074;2023-09-08T08:23:25;14.17;;;6.00;;
5559;SDS011;2803;47.916;8.074;2023-09-08T08:25:55;15.70;;;5.53;;
5559;SDS011;2803;47.916;8.074;2023-09-08T08:28:22;7.40;;;5.30;;
5559;SDS011;2803;47.916;8.074;2023-09-08T08:30:49;10.00;;;5.67;;
5559;SDS011;2803;47.916;8.074;2023-09-08T08:33:16;9.00;;;5.67;;
5559;SDS011;2803;47.916;8.074;2023-09-08T08:35:49;17.10;;;5.50;;
5559;SDS011;2803;47.916;8.074;2023-09-08T08:38:22;12.30;;;5.93;;
5559;SDS011;2803;47.916;8.074;2023-09-08T08:40:48;7.17;;;5.50;;
5559;SDS011;2803;47.916;8.074;2023-09-08T08:43:15;7.20;;;5.33;;
5559;SDS011;2803;47.916;8.074;2023-09-08T08:45:42;11.43;;;5.00;;
5559;SDS011;2803;47.916;8.074;2023-09-08T08:48:10;7.23;;;5.27;;
5559;SDS011;2803;47.916;8.074;2023-09-08T08:50:45;7.13;;;5.07;;
5559;SDS011;2803;47.916;8.074;2023-09-08T08:53:14;10.90;;;5.13;;
5559;SDS011;2803;47.916;8.074;2023-09-08T08:55:43;8.53;;;4.93;;
5559;SDS011;2803;47.916;8.074;2023-09-08T08:58:10;8.27;;;5.60;;
5559;SDS011;2803;47.916;8.074;2023-09-08T09:00:39;8.73;;;5.10;;
5559;SDS011;2803;47.916;8.074;2023-09-08T09:03:06;7.60;;;4.60;;
5559;SDS011;2803;47.916;8.074;2023-09-08T09:05:35;9.53;;;5.37;;
5559;SDS011;2803;47.916;8.074;2023-09-08T09:08:03;5.73;;;4.57;;
5559;SDS011;2803;47.916;8.074;2023-09-08T09:10:33;5.80;;;4.63;;
5559;SDS011;2803;47.916;8.074;2023-09-08T09:13:00;8.13;;;5.10;;
5559;SDS011;2803;47.916;8.074;2023-09-08T09:15:28;6.30;;;5.00;;
5559;SDS011;2803;47.916;8.074;2023-09-08T09:18:03;6.43;;;4.57;;
5559;SDS011;2803;47.916;8.074;2023-09-08T09:20:30;5.43;;;4.93;;
5559;SDS011;2803;47.916;8.074;2023-09-08T09:22:57;7.10;;;4.57;;
5559;SDS011;2803;47.916;8.074;2023-09-08T09:25:24;7.33;;;4.77;;
5559;SDS011;2803;47.916;8.074;2023-09-08T09:27:55;7.73;;;4.60;;
5559;SDS011;2803;47.916;8.074;2023-09-08T09:30:22;6.77;;;5.10;;
5559;SDS011;2803;47.916;8.074;2023-09-08T09:32:58;15.97;;;5.60;;
5559;SDS011;2803;47.916;8.074;2023-09-08T09:35:39;6.80;;;4.97;;
5559;SDS011;2803;47.916;8.074;2023-09-08T09:38:06;7.97;;;5.00;;
5559;SDS011;2803;47.916;8.074;2023-09-08T09:40:34;5.20;;;4.30;;
5559;SDS011;2803;47.916;8.074;2023-09-08T09:43:02;6.33;;;4.73;;
5559;SDS011;2803;47.916;8.074;2023-09-08T09:45:30;6.50;;;4.53;;
5559;SDS011;2803;47.916;8.074;2023-09-08T09:47:57;8.70;;;4.63;;
5559;SDS011;2803;47.916;8.074;2023-09-08T09:50:27;5.70;;;4.70;;
5559;SDS011;2803;47.916;8.074;2023-09-08T09:52:56;6.40;;;4.80;;
5559;SDS011;2803;47.916;8.074;2023-09-08T09:55:24;9.17;;;5.43;;
5559;SDS011;2803;47.916;8.074;2023-09-08T09:57:52;5.80;;;4.57;;
5559;SDS011;2803;47.916;8.074;2023-09-08T10:00:24;5.53;;;5.03;;
5559;SDS011;2803;47.916;8.074;2023-09-08T10:02:51;7.83;;;4.47;;
5559;SDS011;2803;47.916;8.074;2023-09-08T10:05:18;10.40;;;4.87;;
5559;SDS011;2803;47.916;8.074;2023-09-08T10:07:45;5.73;;;4.67;;
5559;SDS011;2803;47.916;8.074;2023-09-08T10:10:13;10.77;;;4.80;;
5559;SDS011;2803;47.916;8.074;2023-09-08T10:12:39;6.50;;;4.40;;
5559;SDS011;2803;47.916;8.074;2023-09-08T10:15:09;9.33;;;4.53;;
5559;SDS011;2803;47.916;8.074;2023-09-08T10:17:38;6.33;;;4.70;;
5559;SDS011;2803;47.916;8.074;2023-09-08T10:20:07;16.90;;;5.03;;
5559;SDS011;2803;47.916;8.074;2023-09-08T10:22:38;6.27;;;4.07;;
5559;SDS011;2803;47.916;8.074;2023-09-08T10:25:07;8.23;;;4.40;;
5559;SDS011;2803;47.916;8.074;2023-09-08T10:27:35;9.40;;;4.40;;
5559;SDS011;2803;47.916;8.074;2023-09-08T10:30:02;9.73;;;4.63;;
5559;SDS011;2803;47.916;8.074;2023-09-08T10:32:31;9.80;;;5.23;;
5559;SDS011;2803;47.916;8.074;2023-09-08T10:35:01;7.30;;;5.50;;
5559;SDS011;2803;47.916;8.074;2023-09-08T10:37:29;11.50;;;4.10;;
5559;SDS011;2803;47.916;8.074;2023-09-08T10:39:56;13.10;;;4.50;;
5559;SDS011;2803;47.916;8.074;2023-09-08T10:42:46;8.13;;;4.40;;
5559;SDS011;2803;47.916;8.074;2023-09-08T10:45:14;5.17;;;3.83;;
5559;SDS011;2803;47.916;8.074;2023-09-08T10:47:54;12.57;;;4.57;;
5559;SDS011;2803;47.916;8.074;2023-09-08T10:50:27;7.95;;;4.60;;
5559;SDS011;2803;47.916;8.074;2023-09-08T10:53:05;8.00;;;4.90;;
5559;SDS011;2803;47.916;8.074;2023-09-08T10:55:36;8.70;;;4.72;;
5559;SDS011;2803;47.916;8.074;2023-09-08T10:58:03;9.25;;;5.10;;
5559;SDS011;2803;47.916;8.074;2023-09-08T11:00:39;15.07;;;5.07;;
5559;SDS011;2803;47.916;8.074;2023-09-08T11:03:09;5.32;;;4.10;;
5559;SDS011;2803;47.916;8.074;2023-09-08T11:05:37;5.53;;;3.97;;
5559;SDS011;2803;47.916;8.074;2023-09-08T11:08:04;7.85;;;4.72;;
5559;SDS011;2803;47.916;8.074;2023-09-08T11:10:31;13.73;;;4.88;;
5559;SDS011;2803;47.916;8.074;2023-09-08T11:12:59;5.47;;;4.43;;
5559;SDS011;2803;47.916;8.074;2023-09-08T11:15:28;8.02;;;5.10;;
5559;SDS011;2803;47.916;8.074;2023-09-08T11:17:55;12.48;;;4.88;;
5559;SDS011;2803;47.916;8.074;2023-09-08T11:20:25;6.82;;;4.32;;
5559;SDS011;2803;47.916;8.074;2023-09-08T11:22:54;6.15;;;4.82;;
5559;SDS011;2803;47.916;8.074;2023-09-08T11:25:20;7.13;;;4.32;;
5559;SDS011;2803;47.916;8.074;2023-09-08T11:27:47;5.80;;;4.00;;
5559;SDS011;2803;47.916;8.074;2023-09-08T11:30:15;6.70;;;3.78;;
5559;SDS011;2803;47.916;8.074;2023-09-08T11:32:42;7.88;;;4.20;;
5559;SDS011;2803;47.916;8.074;2023-09-08T11:35:09;4.70;;;3.95;;
5559;SDS011;2803;47.916;8.074;2023-09-08T11:37:36;5.55;;;4.10;;
5559;SDS011;2803;47.916;8.074;2023-09-08T11:40:06;6.22;;;3.97;;
5559;SDS011;2803;47.916;8.074;2023-09-08T11:42:37;5.90;;;3.63;;
5559;SDS011;2803;47.916;8.074;2023-09-08T11:45:08;13.63;;;4.30;;
5559;SDS011;2803;47.916;8.074;2023-09-08T11:47:37;5.95;;;4.68;;
5559;SDS011;2803;47.916;8.074;2023-09-08T11:50:06;9.77;;;4.32;;
5559;SDS011;2803;47.916;8.074;2023-09-08T11:52:34;5.90;;;4.57;;
5559;SDS011;2803;47.916;8.074;2023-09-08T11:55:01;13.32;;;4.97;;
5559;SDS011;2803;47.916;8.074;2023-09-08T11:57:29;7.47;;;4.05;;
5559;SDS011;2803;47.916;8.074;2023-09-08T11:59:56;10.00;;;4.35;;
5559;SDS011;2803;47.916;8.074;2023-09-08T12:02:23;10.50;;;4.57;;
5559;SDS011;2803;47.916;8.074;2023-09-08T12:04:52;10.02;;;4.25;;
5559;SDS011;2803;47.916;8.074;2023-09-08T12:07:19;12.43;;;4.20;;
5559;SDS011;2803;47.916;8.074;2023-09-08T12:09:46;15.80;;;4.68;;
5559;SDS011;2803;47.916;8.074;2023-09-08T12:12:12;5.15;;;4.40;;
5559;SDS011;2803;47.916;8.074;2023-09-08T12:14:41;8.02;;;5.07;;
5559;SDS011;2803;47.916;8.074;2023-09-08T12:17:08;6.20;;;4.57;;
5559;SDS011;2803;47.916;8.074;2023-09-08T12:19:35;5.15;;;4.68;;
5559;SDS011;2803;47.916;8.074;2023-09-08T12:22:03;7.80;;;5.07;;
5559;SDS011;2803;47.916;8.074;2023-09-08T12:27:15;7.53;;;3.97;;
5559;SDS011;2803;47.916;8.074;2023-09-08T12:29:44;11.25;;;4.57;;
5559;SDS011;2803;47.916;8.074;2023-09-08T12:32:18;9.98;;;5.20;;
5559;SDS011;2803;47.916;8.074;2023-09-08T12:34:45;11.10;;;4.80;;
5559;SDS011;2803;47.916;8.074;2023-09-08T12:37:11;8.07;;;5.13;;
5559;SDS011;2803;47.916;8.074;2023-09-08T12:39:38;11.37;;;5.30;;
5559;SDS011;2803;47.916;8.074;2023-09-08T12:42:05;6.83;;;5.20;;
5559;SDS011;2803;47.916;8.074;2023-09-08T12:44:32;5.00;;;4.50;;
5559;SDS011;2803;47.916;8.074;2023-09-08T12:46:59;9.23;;;4.87;;
5559;SDS011;2803;47.916;8.074;2023-09-08T12:49:26;6.47;;;4.43;;
5559;SDS011;2803;47.916;8.074;2023-09-08T12:51:53;6.30;;;4.83;;
5559;SDS011;2803;47.916;8.074;2023-09-08T12:54:19;10.67;;;5.43;;
5559;SDS011;2803;47.916;8.074;2023-09-08T12:56:46;8.90;;;5.37;;
5559;SDS011;2803;47.916;8.074;2023-09-08T12:59:13;10.10;;;5.10;;
5559;SDS011;2803;47.916;8.074;2023-09-08T13:01:40;8.07;;;5.63;;
5559;SDS011;2803;47.916;8.074;2023-09-08T13:04:08;6.27;;;4.67;;
5559;SDS011;2803;47.916;8.074;2023-09-08T13:06:34;7.43;;;4.90;;
5559;SDS011;2803;47.916;8.074;2023-09-08T13:09:02;9.33;;;5.07;;
5559;SDS011;2803;47.916;8.074;2023-09-08T13:11:29;5.90;;;4.83;;
5559;SDS011;2803;47.916;8.074;2023-09-08T13:13:56;6.83;;;4.90;;
5559;SDS011;2803;47.916;8.074;2023-09-08T13:16:23;5.23;;;4.73;;
5559;SDS011;2803;47.916;8.074;2023-09-08T13:18:50;8.00;;;4.37;;
5559;SDS011;2803;47.916;8.074;2023-09-08T13:21:17;16.27;;;5.50;;
5559;SDS011;2803;47.916;8.074;2023-09-08T13:23:44;9.03;;;5.10;;
5559;SDS011;2803;47.916;8.074;2023-09-08T13:26:11;5.40;;;4.57;;
5559;SDS011;2803;47.916;8.074;2023-09-08T13:28:37;8.23;;;4.90;;
5559;SDS011;2803;47.916;8.074;2023-09-08T13:31:04;7.40;;;4.20;;
5559;SDS011;2803;47.916;8.074;2023-09-08T13:33:30;9.00;;;5.20;;
5559;SDS011;2803;47.916;8.074;2023-09-08T13:35:57;10.97;;;5.27;;
5559;SDS011;2803;47.916;8.074;2023-09-08T13:38:25;10.33;;;4.90;;
5559;SDS011;2803;47.916;8.074;2023-09-08T13:40:52;7.50;;;5.20;;
5559;SDS011;2803;47.916;8.074;2023-09-08T13:43:18;6.67;;;4.40;;
5559;SDS011;2803;47.916;8.074;2023-09-08T13:45:45;22.43;;;4.30;;
5559;SDS011;2803;47.916;8.074;2023-09-08T13:48:12;9.73;;;4.70;;
5559;SDS011;2803;47.916;8.074;2023-09-08T13:50:38;8.53;;;3.90;;
5559;SDS011;2803;47.916;8.074;2023-09-08T13:53:05;6.20;;;4.33;;
5559;SDS011;2803;47.916;8.074;2023-09-08T13:55:33;7.10;;;4.37;;
5559;SDS011;2803;47.916;8.074;2023-09-08T13:58:00;8.60;;;3.87;;
5559;SDS011;2803;47.916;8.074;2023-09-08T14:00:26;5.90;;;3.90;;
5559;SDS011;2803;47.916;8.074;2023-09-08T14:02:53;7.63;;;3.93;;
5559;SDS011;2803;47.916;8.074;2023-09-08T14:05:20;4.57;;;3.93;;
5559;SDS011;2803;47.916;8.074;2023-09-08T14:07:46;5.67;;;3.97;;
5559;SDS011;2803;47.916;8.074;2023-09-08T14:10:13;8.40;;;4.03;;
5559;SDS011;2803;47.916;8.074;2023-09-08T14:12:41;5.80;;;3.80;;
5559;SDS011;2803;47.916;8.074;2023-09-08T14:15:07;9.40;;;4.33;;
5559;SDS011;2803;47.916;8.074;2023-09-08T14:17:34;6.93;;;4.60;;
5559;SDS011;2803;47.916;8.074;2023-09-08T14:20:01;5.50;;;3.70;;
5559;SDS011;2803;47.916;8.074;2023-09-08T14:22:28;6.37;;;3.73;;
5559;SDS011;2803;47.916;8.074;2023-09-08T14:24:55;6.90;;;4.47;;
5559;SDS011;2803;47.916;8.074;2023-09-08T14:27:21;10.13;;;3.73;;
5559;SDS011;2803;47.916;8.074;2023-09-08T14:29:49;8.23;;;4.63;;
5559;SDS011;2803;47.916;8.074;2023-09-08T14:32:16;5.13;;;3.13;;
5559;SDS011;2803;47.916;8.074;2023-09-08T14:34:43;7.57;;;4.30;;
5559;SDS011;2803;47.916;8.074;2023-09-08T14:37:09;7.13;;;3.97;;
5559;SDS011;2803;47.916;8.074;2023-09-08T14:39:36;9.63;;;4.13;;
5559;SDS011;2803;47.916;8.074;2023-09-08T14:42:02;6.10;;;3.40;;
5559;SDS011;2803;47.916;8.074;2023-09-08T14:44:30;4.60;;;3.47;;
5559;SDS011;2803;47.916;8.074;2023-09-08T14:46:57;6.03;;;3.90;;
5559;SDS011;2803;47.916;8.074;2023-09-08T14:49:24;8.00;;;4.10;;
5559;SDS011;2803;47.916;8.074;2023-09-08T14:51:51;6.60;;;3.67;;
5559;SDS011;2803;47.916;8.074;2023-09-08T14:54:17;9.13;;;4.00;;
5559;SDS011;2803;47.916;8.074;2023-09-08T14:56:44;5.00;;;3.97;;
5559;SDS011;2803;47.916;8.074;2023-09-08T14:59:10;5.87;;;3.60;;
5559;SDS011;2803;47.916;8.074;2023-09-08T15:01:37;14.73;;;3.70;;
5559;SDS011;2803;47.916;8.074;2023-09-08T15:04:06;5.30;;;3.20;;
5559;SDS011;2803;47.916;8.074;2023-09-08T15:06:33;6.93;;;3.60;;
5559;SDS011;2803;47.916;8.074;2023-09-08T15:09:00;8.10;;;3.60;;
5559;SDS011;2803;47.916;8.074;2023-09-08T15:11:26;10.02;;;3.83;;
5559;SDS011;2803;47.916;8.074;2023-09-08T15:13:53;8.07;;;3.60;;
5559;SDS011;2803;47.916;8.074;2023-09-08T15:16:21;5.15;;;3.50;;